sensor_id;sensor_type;location;lat;lon;timestamp;temperature;humidity
26623;DHT22;14254;50.968;5.366;2023-04-10T00:01:49;11.10;99.90
26623;DHT22;14254;50.968;5.366;2023-04-10T00:04:15;11.10;99.90
26623;DHT22;14254;50.968;5.366;2023-04-10T00:06:41;11.00;99.90
26623;DHT22;14254;50.968;5.366;2023-04-10T00:09:07;11.00;99.90
26623;DHT22;14254;50.968;5.366;2023-04-10T00:11:33;10.90;99.90
26623;DHT22;14254;50.968;5.366;2023-04-10T00:13:59;10.80;99.90
26623;DHT22;14254;50.968;5.366;2023-04-10T00:16:25;10.80;99.90
26623;DHT22;14254;50.968;5.366;2023-04-10T00:18:50;10.80;99.90
26623;DHT22;14254;50.968;5.366;2023-04-10T00:21:16;10.80;99.90
26623;DHT22;14254;50.968;5.366;2023-04-10T00:23:42;10.70;99.90
26623;DHT22;14254;50.968;5.366;2023-04-10T00:26:08;10.70;99.90
26623;DHT22;14254;50.968;5.366;2023-04-10T00:28:34;10.70;99.90
26623;DHT22;14254;50.968;5.366;2023-04-10T00:31:03;10.60;99.90
26623;DHT22;14254;50.968;5.366;2023-04-10T00:33:29;10.60;99.90
26623;DHT22;14254;50.968;5.366;2023-04-10T00:35:54;10.60;99.90
26623;DHT22;14254;50.968;5.366;2023-04-10T00:38:20;10.60;99.90
26623;DHT22;14254;50.968;5.366;2023-04-10T00:40:46;10.60;99.90
26623;DHT22;14254;50.968;5.366;2023-04-10T00:43:12;10.50;99.90
26623;DHT22;14254;50.968;5.366;2023-04-10T00:45:38;10.50;99.90
26623;DHT22;14254;50.968;5.366;2023-04-10T00:48:04;10.50;99.90
26623;DHT22;14254;50.968;5.366;2023-04-10T00:50:30;10.50;99.90
26623;DHT22;14254;50.968;5.366;2023-04-10T00:52:57;10.50;99.90
26623;DHT22;14254;50.968;5.366;2023-04-10T00:55:23;10.50;99.90
26623;DHT22;14254;50.968;5.366;2023-04-10T00:57:49;10.40;99.90
26623;DHT22;14254;50.968;5.366;2023-04-10T01:00:15;10.40;99.90
26623;DHT22;14254;50.968;5.366;2023-04-10T01:02:41;10.50;99.90
26623;DHT22;14254;50.968;5.366;2023-04-10T01:05:08;10.40;99.90
26623;DHT22;14254;50.968;5.366;2023-04-10T01:13:26;10.30;99.90
26623;DHT22;14254;50.968;5.366;2023-04-10T01:18:38;10.20;99.90
26623;DHT22;14254;50.968;5.366;2023-04-10T01:21:07;10.10;99.90
26623;DHT22;14254;50.968;5.366;2023-04-10T01:26:52;10.10;99.90
26623;DHT22;14254;50.968;5.366;2023-04-10T01:29:22;10.10;99.90
26623;DHT22;14254;50.968;5.366;2023-04-10T01:31:56;10.00;99.90
26623;DHT22;14254;50.968;5.366;2023-04-10T01:34:27;9.90;99.90
26623;DHT22;14254;50.968;5.366;2023-04-10T01:37:01;9.90;99.90
26623;DHT22;14254;50.968;5.366;2023-04-10T01:39:26;9.90;99.90
26623;DHT22;14254;50.968;5.366;2023-04-10T01:41:54;9.90;99.90
26623;DHT22;14254;50.968;5.366;2023-04-10T01:44:28;9.80;99.90
26623;DHT22;14254;50.968;5.366;2023-04-10T01:46:56;9.70;99.90
26623;DHT22;14254;50.968;5.366;2023-04-10T01:49:25;9.70;99.90
26623;DHT22;14254;50.968;5.366;2023-04-10T01:51:52;9.60;99.90
26623;DHT22;14254;50.968;5.366;2023-04-10T01:54:24;9.60;99.90
26623;DHT22;14254;50.968;5.366;2023-04-10T01:56:50;9.60;99.90
26623;DHT22;14254;50.968;5.366;2023-04-10T01:59:16;9.50;99.90
26623;DHT22;14254;50.968;5.366;2023-04-10T02:01:42;9.50;99.90
26623;DHT22;14254;50.968;5.366;2023-04-10T02:04:07;9.50;99.90
26623;DHT22;14254;50.968;5.366;2023-04-10T02:06:43;9.40;99.90
26623;DHT22;14254;50.968;5.366;2023-04-10T02:09:22;9.40;99.90
26623;DHT22;14254;50.968;5.366;2023-04-10T02:11:56;9.40;99.90
26623;DHT22;14254;50.968;5.366;2023-04-10T02:14:25;9.30;99.90
26623;DHT22;14254;50.968;5.366;2023-04-10T02:16:55;9.40;99.90
26623;DHT22;14254;50.968;5.366;2023-04-10T02:19:26;9.30;99.90
26623;DHT22;14254;50.968;5.366;2023-04-10T02:21:53;9.30;99.90
26623;DHT22;14254;50.968;5.366;2023-04-10T02:24:19;9.30;99.90
26623;DHT22;14254;50.968;5.366;2023-04-10T02:26:50;9.30;99.90
26623;DHT22;14254;50.968;5.366;2023-04-10T02:29:16;9.30;99.90
26623;DHT22;14254;50.968;5.366;2023-04-10T02:31:43;9.40;99.90
26623;DHT22;14254;50.968;5.366;2023-04-10T02:34:09;9.40;99.90
26623;DHT22;14254;50.968;5.366;2023-04-10T02:36:39;9.40;99.90
26623;DHT22;14254;50.968;5.366;2023-04-10T02:39:05;9.40;99.90
26623;DHT22;14254;50.968;5.366;2023-04-10T02:41:31;9.40;99.90
26623;DHT22;14254;50.968;5.366;2023-04-10T02:43:57;9.40;99.90
26623;DHT22;14254;50.968;5.366;2023-04-10T02:46:22;9.40;99.90
26623;DHT22;14254;50.968;5.366;2023-04-10T02:48:49;9.40;99.90
26623;DHT22;14254;50.968;5.366;2023-04-10T02:51:15;9.40;99.90
26623;DHT22;14254;50.968;5.366;2023-04-10T02:53:40;9.40;99.90
26623;DHT22;14254;50.968;5.366;2023-04-10T02:56:06;9.40;99.90
26623;DHT22;14254;50.968;5.366;2023-04-10T02:58:33;9.50;99.90
26623;DHT22;14254;50.968;5.366;2023-04-10T03:01:00;9.40;99.90
26623;DHT22;14254;50.968;5.366;2023-04-10T03:03:26;9.50;99.90
26623;DHT22;14254;50.968;5.366;2023-04-10T03:05:52;9.50;99.90
26623;DHT22;14254;50.968;5.366;2023-04-10T03:08:18;9.50;99.90
26623;DHT22;14254;50.968;5.366;2023-04-10T03:10:45;9.50;99.90
26623;DHT22;14254;50.968;5.366;2023-04-10T03:13:13;9.50;99.90
26623;DHT22;14254;50.968;5.366;2023-04-10T03:15:38;9.50;99.90
26623;DHT22;14254;50.968;5.366;2023-04-10T03:18:04;9.50;99.90
26623;DHT22;14254;50.968;5.366;2023-04-10T03:20:35;9.50;99.90
26623;DHT22;14254;50.968;5.366;2023-04-10T03:23:02;9.50;99.90
26623;DHT22;14254;50.968;5.366;2023-04-10T03:25:28;9.50;99.90
26623;DHT22;14254;50.968;5.366;2023-04-10T03:27:56;9.50;99.90
26623;DHT22;14254;50.968;5.366;2023-04-10T03:30:21;9.50;99.90
26623;DHT22;14254;50.968;5.366;2023-04-10T03:32:47;9.50;99.90
26623;DHT22;14254;50.968;5.366;2023-04-10T03:35:13;9.50;99.90
26623;DHT22;14254;50.968;5.366;2023-04-10T03:37:38;9.50;99.90
26623;DHT22;14254;50.968;5.366;2023-04-10T03:40:07;9.40;99.90
26623;DHT22;14254;50.968;5.366;2023-04-10T03:42:33;9.40;99.90
26623;DHT22;14254;50.968;5.366;2023-04-10T03:44:59;9.40;99.90
26623;DHT22;14254;50.968;5.366;2023-04-10T03:47:27;9.40;99.90
26623;DHT22;14254;50.968;5.366;2023-04-10T03:49:52;9.40;99.90
26623;DHT22;14254;50.968;5.366;2023-04-10T03:52:19;9.40;99.90
26623;DHT22;14254;50.968;5.366;2023-04-10T03:54:44;9.40;99.90
26623;DHT22;14254;50.968;5.366;2023-04-10T03:57:10;9.30;99.90
26623;DHT22;14254;50.968;5.366;2023-04-10T03:59:36;9.30;99.90
26623;DHT22;14254;50.968;5.366;2023-04-10T04:02:01;9.30;99.90
26623;DHT22;14254;50.968;5.366;2023-04-10T04:04:27;9.20;99.90
26623;DHT22;14254;50.968;5.366;2023-04-10T04:06:52;9.20;99.90
26623;DHT22;14254;50.968;5.366;2023-04-10T04:09:18;9.10;99.90
26623;DHT22;14254;50.968;5.366;2023-04-10T04:11:44;9.10;99.90
26623;DHT22;14254;50.968;5.366;2023-04-10T04:14:09;9.00;99.90
26623;DHT22;14254;50.968;5.366;2023-04-10T04:16:35;9.00;99.90
26623;DHT22;14254;50.968;5.366;2023-04-10T04:19:01;9.00;99.90
26623;DHT22;14254;50.968;5.366;2023-04-10T04:21:26;9.00;99.90
26623;DHT22;14254;50.968;5.366;2023-04-10T04:23:52;8.90;99.90
26623;DHT22;14254;50.968;5.366;2023-04-10T04:26:19;8.90;99.90
26623;DHT22;14254;50.968;5.366;2023-04-10T04:28:45;8.90;99.90
26623;DHT22;14254;50.968;5.366;2023-04-10T04:31:11;8.80;99.90
26623;DHT22;14254;50.968;5.366;2023-04-10T04:33:37;8.80;99.90
26623;DHT22;14254;50.968;5.366;2023-04-10T04:36:03;8.70;99.90
26623;DHT22;14254;50.968;5.366;2023-04-10T04:38:28;8.70;99.90
26623;DHT22;14254;50.968;5.366;2023-04-10T04:40:54;8.70;99.90
26623;DHT22;14254;50.968;5.366;2023-04-10T04:43:20;8.70;99.90
26623;DHT22;14254;50.968;5.366;2023-04-10T04:45:45;8.60;99.90
26623;DHT22;14254;50.968;5.366;2023-04-10T04:48:11;8.60;99.90
26623;DHT22;14254;50.968;5.366;2023-04-10T04:50:39;8.60;99.90
26623;DHT22;14254;50.968;5.366;2023-04-10T04:53:06;8.70;99.90
26623;DHT22;14254;50.968;5.366;2023-04-10T04:55:32;8.70;99.90
26623;DHT22;14254;50.968;5.366;2023-04-10T04:57:58;8.60;99.90
26623;DHT22;14254;50.968;5.366;2023-04-10T05:00:23;8.60;99.90
26623;DHT22;14254;50.968;5.366;2023-04-10T05:02:49;8.70;99.90
26623;DHT22;14254;50.968;5.366;2023-04-10T05:05:15;8.60;99.90
26623;DHT22;14254;50.968;5.366;2023-04-10T05:07:40;8.70;99.90
26623;DHT22;14254;50.968;5.366;2023-04-10T05:10:07;8.70;99.90
26623;DHT22;14254;50.968;5.366;2023-04-10T05:12:33;8.70;99.90
26623;DHT22;14254;50.968;5.366;2023-04-10T05:14:59;8.70;99.90
26623;DHT22;14254;50.968;5.366;2023-04-10T05:17:25;8.80;99.90
26623;DHT22;14254;50.968;5.366;2023-04-10T05:19:50;8.80;99.90
26623;DHT22;14254;50.968;5.366;2023-04-10T05:22:16;8.80;99.90
26623;DHT22;14254;50.968;5.366;2023-04-10T05:24:42;8.90;99.90
26623;DHT22;14254;50.968;5.366;2023-04-10T05:27:07;9.00;99.90
26623;DHT22;14254;50.968;5.366;2023-04-10T05:29:33;9.00;99.90
26623;DHT22;14254;50.968;5.366;2023-04-10T05:31:59;9.00;99.90
26623;DHT22;14254;50.968;5.366;2023-04-10T05:34:25;9.10;99.90
26623;DHT22;14254;50.968;5.366;2023-04-10T05:36:51;9.10;99.90
26623;DHT22;14254;50.968;5.366;2023-04-10T05:39:17;9.20;99.90
26623;DHT22;14254;50.968;5.366;2023-04-10T05:41:42;9.30;99.90
26623;DHT22;14254;50.968;5.366;2023-04-10T05:44:08;9.40;99.90
26623;DHT22;14254;50.968;5.366;2023-04-10T05:46:34;9.40;99.90
26623;DHT22;14254;50.968;5.366;2023-04-10T05:48:59;9.50;99.90
26623;DHT22;14254;50.968;5.366;2023-04-10T05:51:25;9.50;99.90
26623;DHT22;14254;50.968;5.366;2023-04-10T05:53:51;9.70;99.90
26623;DHT22;14254;50.968;5.366;2023-04-10T05:56:17;9.70;99.90
26623;DHT22;14254;50.968;5.366;2023-04-10T05:58:43;9.80;99.90
26623;DHT22;14254;50.968;5.366;2023-04-10T06:01:08;9.90;99.90
26623;DHT22;14254;50.968;5.366;2023-04-10T06:03:35;9.90;99.90
26623;DHT22;14254;50.968;5.366;2023-04-10T06:06:01;9.90;99.90
26623;DHT22;14254;50.968;5.366;2023-04-10T06:08:27;10.00;99.90
26623;DHT22;14254;50.968;5.366;2023-04-10T06:10:53;10.00;99.90
26623;DHT22;14254;50.968;5.366;2023-04-10T06:13:18;10.10;99.90
26623;DHT22;14254;50.968;5.366;2023-04-10T06:15:44;10.30;99.90
26623;DHT22;14254;50.968;5.366;2023-04-10T06:18:10;10.30;99.90
26623;DHT22;14254;50.968;5.366;2023-04-10T06:20:36;10.30;99.90
26623;DHT22;14254;50.968;5.366;2023-04-10T06:23:02;10.50;99.90
26623;DHT22;14254;50.968;5.366;2023-04-10T06:25:27;10.70;99.90
26623;DHT22;14254;50.968;5.366;2023-04-10T06:27:53;10.90;99.90
26623;DHT22;14254;50.968;5.366;2023-04-10T06:30:19;11.00;99.90
26623;DHT22;14254;50.968;5.366;2023-04-10T06:32:45;11.10;99.90
26623;DHT22;14254;50.968;5.366;2023-04-10T06:35:10;11.20;99.90
26623;DHT22;14254;50.968;5.366;2023-04-10T06:37:36;11.10;99.90
26623;DHT22;14254;50.968;5.366;2023-04-10T06:40:09;11.20;99.90
26623;DHT22;14254;50.968;5.366;2023-04-10T06:42:36;11.30;99.90
26623;DHT22;14254;50.968;5.366;2023-04-10T06:45:03;11.40;99.90
26623;DHT22;14254;50.968;5.366;2023-04-10T06:47:29;11.40;99.90
26623;DHT22;14254;50.968;5.366;2023-04-10T06:49:56;11.30;99.90
26623;DHT22;14254;50.968;5.366;2023-04-10T06:52:22;11.30;99.90
26623;DHT22;14254;50.968;5.366;2023-04-10T06:54:47;11.50;99.90
26623;DHT22;14254;50.968;5.366;2023-04-10T06:57:13;11.50;99.90
26623;DHT22;14254;50.968;5.366;2023-04-10T06:59:40;11.60;99.90
26623;DHT22;14254;50.968;5.366;2023-04-10T07:02:06;11.70;99.90
26623;DHT22;14254;50.968;5.366;2023-04-10T07:04:32;11.60;99.90
26623;DHT22;14254;50.968;5.366;2023-04-10T07:06:58;11.60;99.90
26623;DHT22;14254;50.968;5.366;2023-04-10T07:09:25;11.50;99.90
26623;DHT22;14254;50.968;5.366;2023-04-10T07:11:51;11.60;99.90
26623;DHT22;14254;50.968;5.366;2023-04-10T07:14:17;11.60;99.90
26623;DHT22;14254;50.968;5.366;2023-04-10T07:16:43;11.60;99.90
26623;DHT22;14254;50.968;5.366;2023-04-10T07:19:08;11.80;99.90
26623;DHT22;14254;50.968;5.366;2023-04-10T07:21:34;11.90;99.90
26623;DHT22;14254;50.968;5.366;2023-04-10T07:24:00;11.90;99.90
26623;DHT22;14254;50.968;5.366;2023-04-10T07:26:26;11.90;99.90
26623;DHT22;14254;50.968;5.366;2023-04-10T07:28:52;11.90;99.90
26623;DHT22;14254;50.968;5.366;2023-04-10T07:31:17;12.10;99.90
26623;DHT22;14254;50.968;5.366;2023-04-10T07:33:46;12.10;99.90
26623;DHT22;14254;50.968;5.366;2023-04-10T07:36:12;12.20;99.90
26623;DHT22;14254;50.968;5.366;2023-04-10T07:38:38;12.20;99.90
26623;DHT22;14254;50.968;5.366;2023-04-10T07:41:04;12.30;99.90
26623;DHT22;14254;50.968;5.366;2023-04-10T07:43:30;12.40;99.90
26623;DHT22;14254;50.968;5.366;2023-04-10T07:45:56;12.40;99.90
26623;DHT22;14254;50.968;5.366;2023-04-10T07:48:22;12.50;99.90
26623;DHT22;14254;50.968;5.366;2023-04-10T07:50:48;12.70;99.90
26623;DHT22;14254;50.968;5.366;2023-04-10T07:53:13;12.80;99.90
26623;DHT22;14254;50.968;5.366;2023-04-10T07:55:44;12.80;99.90
26623;DHT22;14254;50.968;5.366;2023-04-10T07:58:10;13.00;99.90
26623;DHT22;14254;50.968;5.366;2023-04-10T08:00:36;13.20;99.90
26623;DHT22;14254;50.968;5.366;2023-04-10T08:03:03;13.40;99.90
26623;DHT22;14254;50.968;5.366;2023-04-10T08:05:29;13.50;99.90
26623;DHT22;14254;50.968;5.366;2023-04-10T08:07:55;13.80;99.90
26623;DHT22;14254;50.968;5.366;2023-04-10T08:10:21;13.90;99.90
26623;DHT22;14254;50.968;5.366;2023-04-10T08:12:47;13.90;99.90
26623;DHT22;14254;50.968;5.366;2023-04-10T08:15:12;14.10;99.90
26623;DHT22;14254;50.968;5.366;2023-04-10T08:17:38;14.20;99.90
26623;DHT22;14254;50.968;5.366;2023-04-10T08:20:04;14.30;99.90
26623;DHT22;14254;50.968;5.366;2023-04-10T08:22:31;14.30;99.90
26623;DHT22;14254;50.968;5.366;2023-04-10T08:24:56;14.20;99.90
26623;DHT22;14254;50.968;5.366;2023-04-10T08:27:22;14.40;99.90
26623;DHT22;14254;50.968;5.366;2023-04-10T08:29:47;14.30;99.90
26623;DHT22;14254;50.968;5.366;2023-04-10T08:32:13;14.30;99.90
26623;DHT22;14254;50.968;5.366;2023-04-10T08:34:39;14.20;99.90
26623;DHT22;14254;50.968;5.366;2023-04-10T08:37:05;14.20;99.90
26623;DHT22;14254;50.968;5.366;2023-04-10T08:39:37;14.20;99.90
26623;DHT22;14254;50.968;5.366;2023-04-10T08:42:04;14.20;99.90
26623;DHT22;14254;50.968;5.366;2023-04-10T08:44:30;14.30;99.90
26623;DHT22;14254;50.968;5.366;2023-04-10T08:46:58;14.30;99.90
26623;DHT22;14254;50.968;5.366;2023-04-10T08:51:56;14.60;99.90
26623;DHT22;14254;50.968;5.366;2023-04-10T08:54:32;14.60;99.90
26623;DHT22;14254;50.968;5.366;2023-04-10T08:56:58;14.50;99.90
26623;DHT22;14254;50.968;5.366;2023-04-10T08:59:27;14.50;99.90
26623;DHT22;14254;50.968;5.366;2023-04-10T09:01:57;14.60;99.90
26623;DHT22;14254;50.968;5.366;2023-04-10T09:04:24;14.90;99.90
26623;DHT22;14254;50.968;5.366;2023-04-10T09:06:51;15.00;99.90
26623;DHT22;14254;50.968;5.366;2023-04-10T09:09:16;15.00;99.90
26623;DHT22;14254;50.968;5.366;2023-04-10T09:14:23;15.10;99.90
26623;DHT22;14254;50.968;5.366;2023-04-10T09:16:50;15.10;99.90
26623;DHT22;14254;50.968;5.366;2023-04-10T09:19:34;15.10;99.90
26623;DHT22;14254;50.968;5.366;2023-04-10T09:22:00;15.30;99.90
26623;DHT22;14254;50.968;5.366;2023-04-10T09:24:26;15.30;99.90
26623;DHT22;14254;50.968;5.366;2023-04-10T09:26:52;15.40;99.90
26623;DHT22;14254;50.968;5.366;2023-04-10T09:29:18;15.70;99.90
26623;DHT22;14254;50.968;5.366;2023-04-10T09:31:44;15.70;99.90
26623;DHT22;14254;50.968;5.366;2023-04-10T09:34:11;15.90;99.90
26623;DHT22;14254;50.968;5.366;2023-04-10T09:36:37;15.90;99.90
26623;DHT22;14254;50.968;5.366;2023-04-10T09:39:05;15.80;99.90
26623;DHT22;14254;50.968;5.366;2023-04-10T09:41:31;16.00;99.90
26623;DHT22;14254;50.968;5.366;2023-04-10T09:44:09;15.90;99.90
26623;DHT22;14254;50.968;5.366;2023-04-10T09:46:35;15.90;99.90
26623;DHT22;14254;50.968;5.366;2023-04-10T09:49:01;15.90;99.90
26623;DHT22;14254;50.968;5.366;2023-04-10T09:51:33;15.90;99.90
26623;DHT22;14254;50.968;5.366;2023-04-10T09:54:03;15.80;99.90
26623;DHT22;14254;50.968;5.366;2023-04-10T09:56:29;15.80;99.90
26623;DHT22;14254;50.968;5.366;2023-04-10T09:59:00;15.90;99.90
26623;DHT22;14254;50.968;5.366;2023-04-10T10:01:26;16.00;99.90
26623;DHT22;14254;50.968;5.366;2023-04-10T10:04:03;16.20;99.90
26623;DHT22;14254;50.968;5.366;2023-04-10T10:06:32;16.40;99.90
26623;DHT22;14254;50.968;5.366;2023-04-10T10:09:04;16.30;99.90
26623;DHT22;14254;50.968;5.366;2023-04-10T10:11:32;16.40;99.90
26623;DHT22;14254;50.968;5.366;2023-04-10T10:14:01;16.30;99.90
26623;DHT22;14254;50.968;5.366;2023-04-10T10:16:41;16.50;99.90
26623;DHT22;14254;50.968;5.366;2023-04-10T10:19:37;16.60;99.90
26623;DHT22;14254;50.968;5.366;2023-04-10T10:22:05;16.80;99.90
26623;DHT22;14254;50.968;5.366;2023-04-10T10:24:34;16.70;99.90
26623;DHT22;14254;50.968;5.366;2023-04-10T10:27:01;17.00;99.90
26623;DHT22;14254;50.968;5.366;2023-04-10T10:29:31;17.30;99.90
26623;DHT22;14254;50.968;5.366;2023-04-10T10:31:59;17.10;99.90
26623;DHT22;14254;50.968;5.366;2023-04-10T10:34:27;17.00;99.90
26623;DHT22;14254;50.968;5.366;2023-04-10T10:36:53;17.30;99.90
26623;DHT22;14254;50.968;5.366;2023-04-10T10:39:46;17.60;99.90
26623;DHT22;14254;50.968;5.366;2023-04-10T10:42:29;17.20;99.90
26623;DHT22;14254;50.968;5.366;2023-04-10T10:45:22;17.30;99.90
26623;DHT22;14254;50.968;5.366;2023-04-10T10:47:53;17.30;99.90
26623;DHT22;14254;50.968;5.366;2023-04-10T10:50:19;17.40;99.90
26623;DHT22;14254;50.968;5.366;2023-04-10T10:52:51;17.30;99.90
26623;DHT22;14254;50.968;5.366;2023-04-10T10:57:54;17.90;99.90
26623;DHT22;14254;50.968;5.366;2023-04-10T11:00:28;18.10;99.90
26623;DHT22;14254;50.968;5.366;2023-04-10T11:03:26;18.30;99.90
26623;DHT22;14254;50.968;5.366;2023-04-10T11:11:07;18.50;99.90
26623;DHT22;14254;50.968;5.366;2023-04-10T11:13:34;18.70;99.90
26623;DHT22;14254;50.968;5.366;2023-04-10T11:16:02;18.90;99.90
26623;DHT22;14254;50.968;5.366;2023-04-10T11:21:19;19.10;99.90
26623;DHT22;14254;50.968;5.366;2023-04-10T11:31:39;19.40;98.80
26623;DHT22;14254;50.968;5.366;2023-04-10T11:34:08;19.80;98.90
26623;DHT22;14254;50.968;5.366;2023-04-10T11:36:40;20.20;98.10
26623;DHT22;14254;50.968;5.366;2023-04-10T11:39:11;20.10;96.90
26623;DHT22;14254;50.968;5.366;2023-04-10T11:41:45;20.00;97.10
26623;DHT22;14254;50.968;5.366;2023-04-10T11:44:16;20.10;96.40
26623;DHT22;14254;50.968;5.366;2023-04-10T11:46:44;20.30;96.00
26623;DHT22;14254;50.968;5.366;2023-04-10T11:49:23;20.40;96.00
26623;DHT22;14254;50.968;5.366;2023-04-10T11:51:50;21.00;94.50
26623;DHT22;14254;50.968;5.366;2023-04-10T11:54:18;21.10;94.20
26623;DHT22;14254;50.968;5.366;2023-04-10T11:57:03;21.00;94.20
26623;DHT22;14254;50.968;5.366;2023-04-10T11:59:31;20.30;94.20
26623;DHT22;14254;50.968;5.366;2023-04-10T12:02:06;19.70;94.50
26623;DHT22;14254;50.968;5.366;2023-04-10T12:04:34;19.80;95.40
26623;DHT22;14254;50.968;5.366;2023-04-10T12:07:00;20.30;94.70
26623;DHT22;14254;50.968;5.366;2023-04-10T12:09:26;20.90;93.70
26623;DHT22;14254;50.968;5.366;2023-04-10T12:14:20;20.50;94.30
26623;DHT22;14254;50.968;5.366;2023-04-10T12:16:46;20.60;93.60
26623;DHT22;14254;50.968;5.366;2023-04-10T12:19:13;20.50;93.50
26623;DHT22;14254;50.968;5.366;2023-04-10T12:21:40;20.20;93.30
26623;DHT22;14254;50.968;5.366;2023-04-10T12:24:07;19.70;94.70
26623;DHT22;14254;50.968;5.366;2023-04-10T12:26:33;19.70;95.00
26623;DHT22;14254;50.968;5.366;2023-04-10T12:28:58;20.30;95.00
26623;DHT22;14254;50.968;5.366;2023-04-10T12:31:34;21.00;93.40
26623;DHT22;14254;50.968;5.366;2023-04-10T12:34:02;21.50;93.00
26623;DHT22;14254;50.968;5.366;2023-04-10T12:36:30;21.80;91.60
26623;DHT22;14254;50.968;5.366;2023-04-10T12:38:58;21.20;92.40
26623;DHT22;14254;50.968;5.366;2023-04-10T12:41:26;20.60;92.80
26623;DHT22;14254;50.968;5.366;2023-04-10T12:44:04;20.80;93.70
26623;DHT22;14254;50.968;5.366;2023-04-10T12:46:31;20.70;93.40
26623;DHT22;14254;50.968;5.366;2023-04-10T12:49:08;20.60;94.10
26623;DHT22;14254;50.968;5.366;2023-04-10T12:51:45;19.80;93.90
26623;DHT22;14254;50.968;5.366;2023-04-10T12:54:11;19.40;94.10
26623;DHT22;14254;50.968;5.366;2023-04-10T12:56:50;19.40;94.60
26623;DHT22;14254;50.968;5.366;2023-04-10T12:59:16;19.50;94.70
26623;DHT22;14254;50.968;5.366;2023-04-10T13:01:42;19.70;94.40
26623;DHT22;14254;50.968;5.366;2023-04-10T13:04:08;19.50;94.40
26623;DHT22;14254;50.968;5.366;2023-04-10T13:06:44;19.20;95.60
26623;DHT22;14254;50.968;5.366;2023-04-10T13:09:12;19.30;96.10
26623;DHT22;14254;50.968;5.366;2023-04-10T13:11:38;19.20;94.40
26623;DHT22;14254;50.968;5.366;2023-04-10T13:14:04;19.20;94.20
26623;DHT22;14254;50.968;5.366;2023-04-10T13:16:29;19.00;94.60
26623;DHT22;14254;50.968;5.366;2023-04-10T13:18:55;19.10;95.40
26623;DHT22;14254;50.968;5.366;2023-04-10T13:21:21;18.90;95.70
26623;DHT22;14254;50.968;5.366;2023-04-10T13:23:50;19.10;95.20
26623;DHT22;14254;50.968;5.366;2023-04-10T13:26:16;19.30;95.00
26623;DHT22;14254;50.968;5.366;2023-04-10T13:28:42;19.30;95.20
26623;DHT22;14254;50.968;5.366;2023-04-10T13:31:08;19.00;96.10
26623;DHT22;14254;50.968;5.366;2023-04-10T13:33:33;18.90;96.10
26623;DHT22;14254;50.968;5.366;2023-04-10T13:35:59;18.80;96.80
26623;DHT22;14254;50.968;5.366;2023-04-10T13:38:25;18.70;96.20
26623;DHT22;14254;50.968;5.366;2023-04-10T13:40:52;18.30;96.80
26623;DHT22;14254;50.968;5.366;2023-04-10T13:43:18;18.20;97.20
26623;DHT22;14254;50.968;5.366;2023-04-10T13:45:43;18.10;96.70
26623;DHT22;14254;50.968;5.366;2023-04-10T13:48:09;18.20;97.40
26623;DHT22;14254;50.968;5.366;2023-04-10T13:50:35;18.40;96.80
26623;DHT22;14254;50.968;5.366;2023-04-10T13:53:01;18.50;97.20
26623;DHT22;14254;50.968;5.366;2023-04-10T13:55:26;18.50;96.60
26623;DHT22;14254;50.968;5.366;2023-04-10T13:57:52;18.40;96.90
26623;DHT22;14254;50.968;5.366;2023-04-10T14:00:18;18.20;97.60
26623;DHT22;14254;50.968;5.366;2023-04-10T14:02:44;18.20;98.80
26623;DHT22;14254;50.968;5.366;2023-04-10T14:05:10;18.10;98.20
26623;DHT22;14254;50.968;5.366;2023-04-10T14:07:36;18.00;97.90
26623;DHT22;14254;50.968;5.366;2023-04-10T14:10:02;17.70;99.90
26623;DHT22;14254;50.968;5.366;2023-04-10T14:12:27;17.40;99.90
26623;DHT22;14254;50.968;5.366;2023-04-10T14:14:53;17.00;99.90
26623;DHT22;14254;50.968;5.366;2023-04-10T14:17:21;16.70;99.90
26623;DHT22;14254;50.968;5.366;2023-04-10T14:19:46;16.60;99.90
26623;DHT22;14254;50.968;5.366;2023-04-10T14:22:16;16.40;99.90
26623;DHT22;14254;50.968;5.366;2023-04-10T14:24:41;16.40;99.90
26623;DHT22;14254;50.968;5.366;2023-04-10T14:27:07;16.30;99.90
26623;DHT22;14254;50.968;5.366;2023-04-10T14:29:33;16.10;99.90
26623;DHT22;14254;50.968;5.366;2023-04-10T14:31:58;15.70;99.90
26623;DHT22;14254;50.968;5.366;2023-04-10T14:34:24;15.40;99.90
26623;DHT22;14254;50.968;5.366;2023-04-10T14:36:50;15.20;99.90
26623;DHT22;14254;50.968;5.366;2023-04-10T14:39:21;15.10;99.90
26623;DHT22;14254;50.968;5.366;2023-04-10T14:41:47;15.30;99.90
26623;DHT22;14254;50.968;5.366;2023-04-10T14:44:12;15.50;99.90
26623;DHT22;14254;50.968;5.366;2023-04-10T14:46:38;15.60;99.90
26623;DHT22;14254;50.968;5.366;2023-04-10T14:49:04;15.80;99.90
26623;DHT22;14254;50.968;5.366;2023-04-10T14:51:29;15.90;99.90
26623;DHT22;14254;50.968;5.366;2023-04-10T14:53:56;16.10;99.90
26623;DHT22;14254;50.968;5.366;2023-04-10T14:56:22;16.20;99.90
26623;DHT22;14254;50.968;5.366;2023-04-10T14:58:47;16.30;99.90
26623;DHT22;14254;50.968;5.366;2023-04-10T15:01:15;16.40;99.90
26623;DHT22;14254;50.968;5.366;2023-04-10T15:03:45;16.50;99.90
26623;DHT22;14254;50.968;5.366;2023-04-10T15:06:11;16.70;99.90
26623;DHT22;14254;50.968;5.366;2023-04-10T15:08:36;16.90;99.90
26623;DHT22;14254;50.968;5.366;2023-04-10T15:11:02;17.10;99.90
26623;DHT22;14254;50.968;5.366;2023-04-10T15:13:29;17.10;99.90
26623;DHT22;14254;50.968;5.366;2023-04-10T15:15:55;17.20;99.90
26623;DHT22;14254;50.968;5.366;2023-04-10T15:18:22;17.20;99.90
26623;DHT22;14254;50.968;5.366;2023-04-10T15:20:49;17.10;99.90
26623;DHT22;14254;50.968;5.366;2023-04-10T15:23:17;17.20;99.90
26623;DHT22;14254;50.968;5.366;2023-04-10T15:25:42;17.00;99.90
26623;DHT22;14254;50.968;5.366;2023-04-10T15:28:08;17.00;99.90
26623;DHT22;14254;50.968;5.366;2023-04-10T15:30:34;17.00;99.90
26623;DHT22;14254;50.968;5.366;2023-04-10T15:32:59;17.00;99.90
26623;DHT22;14254;50.968;5.366;2023-04-10T15:35:25;16.90;99.90
26623;DHT22;14254;50.968;5.366;2023-04-10T15:37:53;16.70;99.90
26623;DHT22;14254;50.968;5.366;2023-04-10T15:40:18;16.60;99.90
26623;DHT22;14254;50.968;5.366;2023-04-10T15:42:44;16.60;99.90
26623;DHT22;14254;50.968;5.366;2023-04-10T15:45:10;16.70;99.90
26623;DHT22;14254;50.968;5.366;2023-04-10T15:47:36;16.80;99.90
26623;DHT22;14254;50.968;5.366;2023-04-10T15:50:01;16.90;99.90
26623;DHT22;14254;50.968;5.366;2023-04-10T15:52:28;16.80;99.90
26623;DHT22;14254;50.968;5.366;2023-04-10T15:54:56;16.40;99.90
26623;DHT22;14254;50.968;5.366;2023-04-10T15:57:21;15.80;99.90
26623;DHT22;14254;50.968;5.366;2023-04-10T15:59:50;15.20;99.90
26623;DHT22;14254;50.968;5.366;2023-04-10T16:02:16;14.80;99.90
26623;DHT22;14254;50.968;5.366;2023-04-10T16:04:42;14.60;99.90
26623;DHT22;14254;50.968;5.366;2023-04-10T16:07:08;14.40;99.90
26623;DHT22;14254;50.968;5.366;2023-04-10T16:09:33;14.30;99.90
26623;DHT22;14254;50.968;5.366;2023-04-10T16:11:59;14.20;99.90
26623;DHT22;14254;50.968;5.366;2023-04-10T16:14:26;14.20;99.90